createdAt,value
2019-05-16T00:00:51.327Z,1017.38
2019-05-16T00:01:42.063Z,1017.40
2019-05-16T00:02:42.052Z,1017.41
2019-05-16T00:03:42.049Z,1017.41
2019-05-16T00:04:42.046Z,1017.37
2019-05-16T00:05:51.402Z,1017.34
2019-05-16T00:06:42.997Z,1017.39
2019-05-16T00:07:42.051Z,1017.33
2019-05-16T00:08:41.989Z,1017.29
2019-05-16T00:09:41.965Z,1017.28
2019-05-16T00:10:41.957Z,1017.25
2019-05-16T00:11:41.961Z,1017.26
2019-05-16T00:12:41.935Z,1017.25
2019-05-16T00:13:41.990Z,1017.25
2019-05-16T00:14:41.913Z,1017.22
2019-05-16T00:15:41.937Z,1017.18
2019-05-16T00:16:43.945Z,1017.14
2019-05-16T00:17:41.911Z,1017.11
2019-05-16T00:18:41.887Z,1017.10
2019-05-16T00:19:41.871Z,1017.11
2019-05-16T00:20:41.869Z,1017.11
2019-05-16T00:21:41.849Z,1017.11
2019-05-16T00:22:41.838Z,1017.11
2019-05-16T00:23:41.890Z,1017.08
2019-05-16T00:24:41.801Z,1017.06
2019-05-16T00:25:41.798Z,1017.02
2019-05-16T00:26:41.777Z,1016.98
2019-05-16T00:27:41.774Z,1016.97
2019-05-16T00:28:41.814Z,1016.95
2019-05-16T00:29:41.782Z,1016.94
2019-05-16T00:30:41.727Z,1016.90
2019-05-16T00:31:41.731Z,1016.90
2019-05-16T00:32:41.721Z,1016.92
2019-05-16T00:33:41.721Z,1016.91
2019-05-16T00:34:41.731Z,1016.91
2019-05-16T00:35:41.673Z,1016.85
2019-05-16T00:36:41.664Z,1016.88
2019-05-16T00:37:41.651Z,1016.86
2019-05-16T00:38:41.849Z,1016.82
2019-05-16T00:39:41.670Z,1016.78
2019-05-16T00:40:41.623Z,1016.77
2019-05-16T00:41:41.619Z,1016.73
2019-05-16T00:42:41.593Z,1016.70
2019-05-16T00:43:41.613Z,1016.71
2019-05-16T00:44:42.355Z,1016.72
2019-05-16T00:45:41.594Z,1016.69
2019-05-16T00:46:41.609Z,1016.67
2019-05-16T00:47:41.541Z,1016.75
2019-05-16T00:48:41.534Z,1016.72
2019-05-16T00:49:41.543Z,1016.69
2019-05-16T00:50:41.509Z,1016.65
2019-05-16T00:51:41.506Z,1016.62
2019-05-16T00:52:41.511Z,1016.61
2019-05-16T00:53:41.502Z,1016.57
2019-05-16T00:54:41.463Z,1016.51
2019-05-16T00:55:41.466Z,1016.55
2019-05-16T00:56:41.503Z,1016.49
2019-05-16T00:57:41.434Z,1016.50
2019-05-16T00:58:41.448Z,1016.47
2019-05-16T00:59:41.480Z,1016.47
2019-05-16T01:00:41.420Z,1016.43
2019-05-16T01:01:41.415Z,1016.38
2019-05-16T01:02:41.396Z,1016.36
2019-05-16T01:03:41.382Z,1016.40
2019-05-16T01:04:41.391Z,1016.44
2019-05-16T01:05:41.342Z,1016.38
2019-05-16T01:06:41.344Z,1016.36
2019-05-16T01:07:41.340Z,1016.32
2019-05-16T01:08:41.322Z,1016.23
2019-05-16T01:09:41.330Z,1016.23
2019-05-16T01:10:41.318Z,1016.27
2019-05-16T01:11:41.286Z,1016.16
2019-05-16T01:12:41.283Z,1016.10
2019-05-16T01:13:41.283Z,1016.18
2019-05-16T01:14:41.287Z,1016.11
2019-05-16T01:15:41.300Z,1016.13
2019-05-16T01:16:41.232Z,1016.09
2019-05-16T01:17:41.268Z,1016.10
2019-05-16T01:18:41.216Z,1016.02
2019-05-16T01:19:41.268Z,1016.03
2019-05-16T01:20:41.231Z,1016.02
2019-05-16T01:21:41.211Z,1015.99
2019-05-16T01:23:42.343Z,1015.93
2019-05-16T01:25:02.167Z,1015.93
2019-05-16T01:26:02.133Z,1015.99
2019-05-16T01:27:02.166Z,1015.93
2019-05-16T01:29:12.167Z,1015.87
2019-05-16T01:30:12.201Z,1015.88
2019-05-16T01:30:51.155Z,1015.86
2019-05-16T01:31:51.163Z,1015.80
2019-05-16T01:32:51.112Z,1015.80
2019-05-16T01:33:51.094Z,1015.88
2019-05-16T01:34:51.118Z,1015.81
2019-05-16T01:35:51.076Z,1015.78
2019-05-16T01:36:51.107Z,1015.75
2019-05-16T01:37:51.093Z,1015.74
2019-05-16T01:38:51.036Z,1015.69
2019-05-16T01:39:51.145Z,1015.69
2019-05-16T01:40:51.069Z,1015.76
2019-05-16T01:41:51.064Z,1015.68
2019-05-16T01:42:51.029Z,1015.66
2019-05-16T01:43:51.054Z,1015.70
2019-05-16T01:44:50.996Z,1015.64
2019-05-16T01:45:51.105Z,1015.64
2019-05-16T01:46:50.986Z,1015.61
2019-05-16T01:47:51.667Z,1015.61
2019-05-16T01:48:51.015Z,1015.56
2019-05-16T01:49:52.981Z,1015.57
2019-05-16T01:50:50.922Z,1015.57
2019-05-16T01:51:50.987Z,1015.56
2019-05-16T01:52:50.957Z,1015.58
2019-05-16T01:53:50.937Z,1015.45
2019-05-16T01:54:50.916Z,1015.51
2019-05-16T01:55:50.980Z,1015.42
2019-05-16T01:56:50.917Z,1015.41
2019-05-16T01:57:50.889Z,1015.42
2019-05-16T01:58:52.923Z,1015.33
2019-05-16T01:59:50.865Z,1015.37
2019-05-16T02:01:02.477Z,1015.34
2019-05-16T02:01:51.865Z,1015.37
2019-05-16T02:02:50.827Z,1015.36
2019-05-16T02:03:50.783Z,1015.30
2019-05-16T02:04:50.828Z,1015.26
2019-05-16T02:05:50.989Z,1015.28
2019-05-16T02:06:54.774Z,1015.23
2019-05-16T02:07:50.795Z,1015.20
2019-05-16T02:08:50.732Z,1015.15
2019-05-16T02:09:50.760Z,1015.15
2019-05-16T02:10:50.726Z,1015.12
2019-05-16T02:11:50.678Z,1015.06
2019-05-16T02:12:50.671Z,1015.09
2019-05-16T02:13:50.720Z,1015.04
2019-05-16T02:14:50.689Z,1015.04
2019-05-16T02:15:50.793Z,1015.04
2019-05-16T02:16:50.686Z,1014.97
2019-05-16T02:17:50.653Z,1015.02
2019-05-16T02:18:50.665Z,1015.02
2019-05-16T02:19:50.641Z,1015.02
2019-05-16T02:20:50.713Z,1015.04
2019-05-16T02:21:50.818Z,1014.99
2019-05-16T02:22:50.559Z,1015.03
2019-05-16T02:23:51.669Z,1014.99
2019-05-16T02:24:50.540Z,1014.98
2019-05-16T02:25:50.552Z,1015.00
2019-05-16T02:26:52.381Z,1014.92
2019-05-16T02:27:50.573Z,1014.94
2019-05-16T02:28:51.069Z,1014.91
2019-05-16T02:29:50.728Z,1014.90
2019-05-16T02:30:51.660Z,1014.84
2019-05-16T02:31:51.304Z,1014.84
2019-05-16T02:32:52.321Z,1014.76
2019-05-16T02:33:51.289Z,1014.75
2019-05-16T02:34:51.407Z,1014.70
2019-05-16T02:35:54.804Z,1014.68
2019-05-16T02:37:10.642Z,1014.70
2019-05-16T02:37:55.119Z,1014.68
2019-05-16T02:38:54.929Z,1014.71
2019-05-16T02:39:51.427Z,1014.70
2019-05-16T02:40:51.208Z,1014.72
2019-05-16T02:41:52.028Z,1014.71
2019-05-16T02:42:51.409Z,1014.80
2019-05-16T02:43:52.394Z,1014.79
2019-05-16T02:44:52.408Z,1014.77
2019-05-16T02:45:52.016Z,1014.71
2019-05-16T02:46:50.919Z,1014.70
2019-05-16T02:47:51.324Z,1014.69
2019-05-16T02:48:51.790Z,1014.72
2019-05-16T02:49:50.683Z,1014.68
2019-05-16T02:50:52.376Z,1014.65
2019-05-16T02:51:51.199Z,1014.65
2019-05-16T02:52:51.748Z,1014.64
2019-05-16T02:53:51.019Z,1014.66
2019-05-16T02:54:51.771Z,1014.62
2019-05-16T02:55:52.393Z,1014.57
2019-05-16T02:56:50.720Z,1014.63
2019-05-16T02:57:50.975Z,1014.58
2019-05-16T02:58:52.090Z,1014.60
2019-05-16T02:59:51.000Z,1014.56
2019-05-16T03:00:51.488Z,1014.57
2019-05-16T03:01:52.210Z,1014.57
2019-05-16T03:02:54.250Z,1014.53
2019-05-16T03:03:51.596Z,1014.55
2019-05-16T03:04:51.870Z,1014.53
2019-05-16T03:05:50.918Z,1014.58
2019-05-16T03:06:51.270Z,1014.52
2019-05-16T03:07:52.183Z,1014.50
2019-05-16T03:08:50.774Z,1014.53
2019-05-16T03:11:00.994Z,1014.51
2019-05-16T03:12:01.276Z,1014.47
2019-05-16T03:13:01.049Z,1014.49
2019-05-16T03:14:00.660Z,1014.46
2019-05-16T03:15:02.291Z,1014.45
2019-05-16T03:16:00.772Z,1014.40
2019-05-16T03:17:00.972Z,1014.45
2019-05-16T03:18:03.909Z,1014.42
2019-05-16T03:19:11.343Z,1014.41
2019-05-16T03:20:01.443Z,1014.35
2019-05-16T03:21:00.649Z,1014.38
2019-05-16T03:22:01.174Z,1014.34
2019-05-16T03:23:02.195Z,1014.40
2019-05-16T03:24:00.840Z,1014.35
2019-05-16T03:25:01.156Z,1014.38
2019-05-16T03:26:00.942Z,1014.34
2019-05-16T03:27:01.598Z,1014.34
2019-05-16T03:28:01.970Z,1014.28
2019-05-16T03:29:00.952Z,1014.30
2019-05-16T03:30:01.719Z,1014.23
2019-05-16T03:31:05.064Z,1014.23
2019-05-16T03:32:03.189Z,1014.22
2019-05-16T03:33:04.711Z,1014.21
2019-05-16T03:34:06.878Z,1014.21
2019-05-16T03:35:04.827Z,1014.20
2019-05-16T03:36:04.479Z,1014.21
2019-05-16T03:37:04.302Z,1014.22
2019-05-16T03:38:04.125Z,1014.19
2019-05-16T03:39:01.395Z,1014.21
2019-05-16T03:40:00.631Z,1014.19
2019-05-16T03:41:00.946Z,1014.20
2019-05-16T03:42:01.005Z,1014.15
2019-05-16T03:43:01.472Z,1014.12
2019-05-16T03:44:01.396Z,1014.18
2019-05-16T03:45:02.204Z,1014.14
2019-05-16T03:46:02.467Z,1014.18
2019-05-16T03:47:00.998Z,1014.15
2019-05-16T03:48:02.740Z,1014.13
2019-05-16T03:49:02.536Z,1014.16
2019-05-16T03:50:00.670Z,1014.11
2019-05-16T03:51:00.823Z,1014.14
2019-05-16T03:52:01.547Z,1014.11
2019-05-16T03:53:01.599Z,1014.11
2019-05-16T03:54:02.610Z,1014.08
2019-05-16T03:55:01.726Z,1014.11
2019-05-16T03:56:01.804Z,1014.06
2019-05-16T03:57:00.456Z,1014.06
2019-05-16T03:58:01.243Z,1014.05
2019-05-16T03:59:01.129Z,1014.02
2019-05-16T04:00:00.541Z,1014.09
2019-05-16T04:01:02.390Z,1014.02
2019-05-16T04:02:01.446Z,1014.01
2019-05-16T04:03:01.294Z,1014.05
2019-05-16T04:04:01.748Z,1014.04
2019-05-16T04:05:01.879Z,1014.05
2019-05-16T04:06:01.087Z,1014.05
2019-05-16T04:07:11.002Z,1014.05
2019-05-16T04:08:13.782Z,1014.05
2019-05-16T04:09:01.605Z,1014.02
2019-05-16T04:10:10.916Z,1014.02
2019-05-16T04:11:01.489Z,1013.99
2019-05-16T04:12:10.840Z,1014.01
2019-05-16T04:13:01.208Z,1013.97
2019-05-16T04:14:01.483Z,1013.96
2019-05-16T04:15:11.122Z,1013.97
2019-05-16T04:16:01.301Z,1013.89
2019-05-16T04:17:01.317Z,1013.97
2019-05-16T04:18:01.574Z,1013.90
2019-05-16T04:19:01.945Z,1013.97
2019-05-16T04:20:02.045Z,1013.91
2019-05-16T04:21:00.973Z,1013.90
2019-05-16T04:22:10.395Z,1013.86
2019-05-16T04:23:01.120Z,1013.85
2019-05-16T04:24:01.277Z,1013.85
2019-05-16T04:25:01.962Z,1013.84
2019-05-16T04:26:00.660Z,1013.86
2019-05-16T04:27:00.983Z,1013.87
2019-05-16T04:28:01.075Z,1013.87
2019-05-16T04:29:00.815Z,1013.87
2019-05-16T04:30:01.638Z,1013.82
2019-05-16T04:31:02.492Z,1013.83
2019-05-16T04:32:01.517Z,1013.81
2019-05-16T04:33:01.955Z,1013.79
2019-05-16T04:34:01.082Z,1013.79
2019-05-16T04:36:01.246Z,1013.76
2019-05-16T04:37:01.132Z,1013.78
2019-05-16T04:38:01.843Z,1013.79
2019-05-16T04:39:01.784Z,1013.83
2019-05-16T04:40:01.459Z,1013.84
2019-05-16T04:41:01.459Z,1013.82
2019-05-16T04:42:01.589Z,1013.77
2019-05-16T04:43:01.224Z,1013.79
2019-05-16T04:44:01.571Z,1013.74
2019-05-16T04:45:02.160Z,1013.82
2019-05-16T04:46:01.463Z,1013.78
2019-05-16T04:47:01.476Z,1013.79
2019-05-16T04:48:00.455Z,1013.80
2019-05-16T04:49:01.699Z,1013.76
2019-05-16T04:50:01.562Z,1013.79
2019-05-16T04:51:01.292Z,1013.73
2019-05-16T04:52:00.650Z,1013.75
2019-05-16T04:53:01.410Z,1013.75
2019-05-16T04:54:02.453Z,1013.70
2019-05-16T04:55:00.878Z,1013.71
2019-05-16T04:56:15.515Z,1013.77
2019-05-16T04:57:01.476Z,1013.74
2019-05-16T04:58:01.394Z,1013.72
2019-05-16T04:59:00.480Z,1013.71
2019-05-16T05:00:02.154Z,1013.68
2019-05-16T05:01:01.470Z,1013.70
2019-05-16T05:02:02.106Z,1013.71
2019-05-16T05:03:01.347Z,1013.69
2019-05-16T05:04:09.667Z,1013.70
2019-05-16T05:05:01.327Z,1013.64
2019-05-16T05:06:01.227Z,1013.67
2019-05-16T05:07:00.526Z,1013.66
2019-05-16T05:08:01.379Z,1013.62
2019-05-16T05:09:03.251Z,1013.55
2019-05-16T05:10:00.545Z,1013.64
2019-05-16T05:11:01.390Z,1013.65
2019-05-16T05:12:04.150Z,1013.63
2019-05-16T05:13:01.658Z,1013.65
2019-05-16T05:14:00.920Z,1013.68
2019-05-16T05:15:01.408Z,1013.66
2019-05-16T05:16:01.363Z,1013.61
2019-05-16T05:17:01.417Z,1013.64
2019-05-16T05:18:00.610Z,1013.62
2019-05-16T05:19:00.359Z,1013.69
2019-05-16T05:20:01.109Z,1013.63
2019-05-16T05:21:00.878Z,1013.68
2019-05-16T05:22:01.346Z,1013.62
2019-05-16T05:23:00.417Z,1013.66
2019-05-16T05:24:00.052Z,1013.61
2019-05-16T05:25:00.151Z,1013.60
2019-05-16T05:26:00.330Z,1013.66
2019-05-16T05:26:59.844Z,1013.56
2019-05-16T05:28:00.535Z,1013.59
2019-05-16T05:28:59.793Z,1013.53
2019-05-16T05:30:00.828Z,1013.52
2019-05-16T05:31:06.947Z,1013.52
2019-05-16T05:32:04.019Z,1013.48
2019-05-16T05:33:00.758Z,1013.46
2019-05-16T05:34:01.095Z,1013.48
2019-05-16T05:34:59.838Z,1013.44
2019-05-16T05:36:00.774Z,1013.42
2019-05-16T05:37:00.284Z,1013.38
2019-05-16T05:38:00.394Z,1013.39
2019-05-16T05:39:09.127Z,1013.42
2019-05-16T05:40:00.020Z,1013.47
2019-05-16T05:41:00.179Z,1013.53
2019-05-16T05:42:00.058Z,1013.59
2019-05-16T05:42:59.872Z,1013.58
2019-05-16T05:43:59.885Z,1013.59
2019-05-16T05:45:00.282Z,1013.61
2019-05-16T05:46:00.715Z,1013.61
2019-05-16T05:47:00.618Z,1013.59
2019-05-16T05:48:00.157Z,1013.60
2019-05-16T05:48:59.843Z,1013.62
2019-05-16T05:50:00.672Z,1013.63
2019-05-16T05:51:00.247Z,1013.61
2019-05-16T05:52:00.668Z,1013.53
2019-05-16T05:53:00.865Z,1013.56
2019-05-16T05:54:00.179Z,1013.58
2019-05-16T05:55:00.642Z,1013.60
2019-05-16T05:56:00.421Z,1013.56
2019-05-16T05:57:00.528Z,1013.53
2019-05-16T05:58:00.903Z,1013.53
2019-05-16T05:59:01.458Z,1013.54
2019-05-16T06:00:00.359Z,1013.53
2019-05-16T06:01:00.811Z,1013.54
2019-05-16T06:02:00.796Z,1013.56
2019-05-16T06:03:00.061Z,1013.55
2019-05-16T06:03:59.816Z,1013.52
2019-05-16T06:04:59.718Z,1013.52
2019-05-16T06:06:00.859Z,1013.47
2019-05-16T06:07:00.939Z,1013.52
2019-05-16T06:08:00.308Z,1013.46
2019-05-16T06:09:00.532Z,1013.48
2019-05-16T06:10:00.312Z,1013.47
2019-05-16T06:11:00.562Z,1013.49
2019-05-16T06:12:00.598Z,1013.48
2019-05-16T06:13:00.496Z,1013.49
2019-05-16T06:14:00.390Z,1013.47
2019-05-16T06:15:06.033Z,1013.44
2019-05-16T06:16:00.203Z,1013.44
2019-05-16T06:17:00.415Z,1013.43
2019-05-16T06:18:00.282Z,1013.43
2019-05-16T06:19:00.762Z,1013.39
2019-05-16T06:20:00.153Z,1013.44
2019-05-16T06:21:00.286Z,1013.43
2019-05-16T06:22:01.122Z,1013.51
2019-05-16T06:25:01.069Z,1013.45
2019-05-16T06:26:00.421Z,1013.47
2019-05-16T06:26:58.119Z,1013.44
2019-05-16T06:28:00.177Z,1013.43
2019-05-16T06:29:00.503Z,1013.39
2019-05-16T06:30:00.334Z,1013.38
2019-05-16T06:30:58.054Z,1013.36
2019-05-16T06:32:00.091Z,1013.29
2019-05-16T06:32:59.699Z,1013.32
2019-05-16T06:33:57.964Z,1013.31
2019-05-16T06:35:00.017Z,1013.36
2019-05-16T06:37:00.473Z,1013.31
2019-05-16T06:38:00.471Z,1013.24
2019-05-16T06:39:00.266Z,1013.26
2019-05-16T06:39:57.987Z,1013.26
2019-05-16T06:41:00.448Z,1013.25
2019-05-16T06:42:00.401Z,1013.22
2019-05-16T06:43:00.235Z,1013.26
2019-05-16T06:43:59.823Z,1013.25
2019-05-16T06:45:00.582Z,1013.29
2019-05-16T06:46:00.353Z,1013.26
2019-05-16T06:47:14.951Z,1013.28
2019-05-16T06:48:00.735Z,1013.33
2019-05-16T06:48:59.626Z,1013.31
2019-05-16T06:50:00.081Z,1013.30
2019-05-16T06:51:02.515Z,1013.34
2019-05-16T06:51:59.691Z,1013.33
2019-05-16T06:52:57.767Z,1013.27
2019-05-16T06:53:57.767Z,1013.32
2019-05-16T06:54:57.794Z,1013.27
2019-05-16T06:55:59.929Z,1013.24
2019-05-16T06:57:00.245Z,1013.25
2019-05-16T06:57:57.802Z,1013.23
2019-05-16T06:59:00.945Z,1013.25
2019-05-16T06:59:57.753Z,1013.26
2019-05-16T07:01:02.747Z,1013.21
2019-05-16T07:02:00.774Z,1013.17
2019-05-16T07:03:00.279Z,1013.13
2019-05-16T07:04:00.194Z,1013.22
2019-05-16T07:04:57.656Z,1013.17
2019-05-16T07:06:00.338Z,1013.22
2019-05-16T07:07:02.017Z,1013.19
2019-05-16T07:07:59.825Z,1013.18
2019-05-16T07:08:57.678Z,1013.19
2019-05-16T07:10:03.563Z,1013.12
2019-05-16T07:11:00.016Z,1013.12
2019-05-16T07:11:59.752Z,1013.17
2019-05-16T07:14:00.533Z,1013.09
2019-05-16T07:14:57.526Z,1013.07
2019-05-16T07:16:00.754Z,1013.03
2019-05-16T07:17:00.340Z,1013.08
2019-05-16T07:17:59.700Z,1013.08
2019-05-16T07:18:57.532Z,1013.05
2019-05-16T07:19:57.581Z,1013.05
2019-05-16T07:20:57.525Z,1013.02
2019-05-16T07:23:00.627Z,1013.01
2019-05-16T07:23:59.760Z,1012.99
2019-05-16T07:24:59.737Z,1012.98
2019-05-16T07:25:57.558Z,1012.95
2019-05-16T07:27:01.625Z,1012.97
2019-05-16T07:27:57.391Z,1012.98
2019-05-16T07:28:57.439Z,1013.03
2019-05-16T07:31:00.613Z,1013.00
2019-05-16T07:33:00.204Z,1012.96
2019-05-16T07:34:20.485Z,1013.02
2019-05-16T07:35:20.610Z,1013.01
2019-05-16T07:36:20.695Z,1013.00
2019-05-16T07:38:20.264Z,1013.04
2019-05-16T07:39:19.921Z,1013.08
2019-05-16T07:40:01.060Z,1013.05
2019-05-16T07:41:00.002Z,1013.02
2019-05-16T07:41:59.809Z,1012.99
2019-05-16T07:42:57.217Z,1013.01
2019-05-16T07:44:00.936Z,1013.05
2019-05-16T07:45:01.800Z,1013.00
2019-05-16T07:45:57.246Z,1013.03
2019-05-16T07:46:57.218Z,1012.98
2019-05-16T07:47:57.201Z,1013.01
2019-05-16T07:49:00.944Z,1012.96
2019-05-16T07:49:59.466Z,1012.90
2019-05-16T07:51:00.525Z,1012.91
2019-05-16T07:52:00.606Z,1012.93
2019-05-16T07:52:57.137Z,1012.97
2019-05-16T07:53:57.180Z,1012.92
2019-05-16T07:55:00.267Z,1012.85
2019-05-16T07:55:57.470Z,1012.88
2019-05-16T07:57:12.286Z,1012.87
2019-05-16T07:58:00.165Z,1012.79
2019-05-16T07:59:01.186Z,1012.78
2019-05-16T08:00:00.035Z,1012.80
2019-05-16T08:01:03.377Z,1012.77
2019-05-16T08:02:00.656Z,1012.78
2019-05-16T08:02:57.016Z,1012.82
2019-05-16T08:03:57.024Z,1012.84
2019-05-16T08:04:57.287Z,1012.75
2019-05-16T08:07:00.417Z,1012.84
2019-05-16T08:07:56.960Z,1012.82
2019-05-16T08:08:56.973Z,1012.78
2019-05-16T08:11:01.111Z,1012.89
2019-05-16T08:11:57.108Z,1012.82
2019-05-16T08:12:56.976Z,1012.80
2019-05-16T08:14:00.965Z,1012.81
2019-05-16T08:15:00.537Z,1012.77
2019-05-16T08:15:56.920Z,1012.77
2019-05-16T08:16:56.885Z,1012.75
2019-05-16T08:17:56.856Z,1012.71
2019-05-16T08:18:56.831Z,1012.74
2019-05-16T08:20:00.032Z,1012.74
2019-05-16T08:20:56.892Z,1012.75
2019-05-16T08:21:56.906Z,1012.72
2019-05-16T08:22:56.831Z,1012.70
2019-05-16T08:24:07.942Z,1012.71
2019-05-16T08:24:56.764Z,1012.72
2019-05-16T08:25:56.764Z,1012.74
2019-05-16T08:26:56.772Z,1012.66
2019-05-16T08:28:05.062Z,1012.70
2019-05-16T08:28:56.740Z,1012.67
2019-05-16T08:30:05.958Z,1012.76
2019-05-16T08:30:56.713Z,1012.70
2019-05-16T08:31:56.706Z,1012.76
2019-05-16T08:32:56.674Z,1012.72
2019-05-16T08:34:05.484Z,1012.68
2019-05-16T08:35:06.014Z,1012.69
2019-05-16T08:35:56.645Z,1012.69
2019-05-16T08:38:00.857Z,1012.65
2019-05-16T08:39:05.514Z,1012.69
2019-05-16T08:39:56.611Z,1012.67
2019-05-16T08:41:08.201Z,1012.67
2019-05-16T08:42:07.094Z,1012.65
2019-05-16T08:43:00.287Z,1012.69
2019-05-16T08:45:01.160Z,1012.57
2019-05-16T08:46:20.561Z,1012.54
2019-05-16T08:46:58.116Z,1012.60
2019-05-16T08:47:56.575Z,1012.59
2019-05-16T08:48:56.587Z,1012.60
2019-05-16T08:50:00.882Z,1012.61
2019-05-16T08:51:57.989Z,1012.59
2019-05-16T08:54:57.642Z,1012.54
2019-05-16T08:55:57.502Z,1012.51
2019-05-16T08:57:02.427Z,1012.55
2019-05-16T08:58:02.200Z,1012.57
2019-05-16T08:58:57.515Z,1012.51
2019-05-16T09:00:01.193Z,1012.51
2019-05-16T09:01:02.301Z,1012.49
2019-05-16T09:01:58.200Z,1012.49
2019-05-16T09:03:01.796Z,1012.49
2019-05-16T09:04:01.209Z,1012.50
2019-05-16T09:05:05.169Z,1012.50
2019-05-16T09:06:02.504Z,1012.49
2019-05-16T09:07:01.604Z,1012.49
2019-05-16T09:08:00.804Z,1012.39
2019-05-16T09:08:59.625Z,1012.47
2019-05-16T09:10:00.232Z,1012.44
2019-05-16T09:11:58.579Z,1012.43
2019-05-16T09:12:57.414Z,1012.41
2019-05-16T09:14:18.403Z,1012.40
2019-05-16T09:14:59.334Z,1012.41
2019-05-16T09:15:57.293Z,1012.37
2019-05-16T09:16:58.136Z,1012.35
2019-05-16T09:17:58.152Z,1012.34
2019-05-16T09:18:57.688Z,1012.40
2019-05-16T09:19:57.793Z,1012.38
2019-05-16T09:20:57.932Z,1012.40
2019-05-16T09:21:58.115Z,1012.34
2019-05-16T09:22:57.930Z,1012.32
2019-05-16T09:23:57.876Z,1012.28
2019-05-16T09:24:57.806Z,1012.24
2019-05-16T09:25:58.467Z,1012.29
2019-05-16T09:26:58.017Z,1012.26
2019-05-16T09:28:00.067Z,1012.21
2019-05-16T09:28:57.551Z,1012.24
2019-05-16T09:30:01.240Z,1012.24
2019-05-16T09:30:57.875Z,1012.25
2019-05-16T09:33:14.103Z,1012.26
2019-05-16T09:34:14.036Z,1012.25
2019-05-16T09:35:16.926Z,1012.26
2019-05-16T09:37:26.586Z,1012.25
2019-05-16T09:38:24.124Z,1012.25
2019-05-16T09:39:24.049Z,1012.21
2019-05-16T09:40:24.063Z,1012.22
2019-05-16T09:41:46.712Z,1012.31
2019-05-16T09:42:37.049Z,1012.28
2019-05-16T09:43:28.040Z,1012.31
2019-05-16T09:44:24.008Z,1012.26
2019-05-16T09:45:24.005Z,1012.24
2019-05-16T09:46:23.989Z,1012.22
2019-05-16T09:47:24.056Z,1012.22
2019-05-16T09:48:23.988Z,1012.20
2019-05-16T09:49:25.936Z,1012.14
2019-05-16T09:50:24.004Z,1012.15
2019-05-16T09:51:23.986Z,1012.13
2019-05-16T09:52:23.967Z,1012.13
2019-05-16T09:53:23.912Z,1012.10
2019-05-16T09:54:23.924Z,1012.11
2019-05-16T09:55:23.936Z,1012.08
2019-05-16T09:56:27.173Z,1012.10
2019-05-16T09:57:23.915Z,1012.10
2019-05-16T09:58:23.895Z,1012.07
2019-05-16T09:59:26.198Z,1012.09
2019-05-16T10:00:26.714Z,1012.14
2019-05-16T10:01:23.877Z,1012.10
2019-05-16T10:02:23.874Z,1012.14
2019-05-16T10:03:23.952Z,1012.17
2019-05-16T10:04:26.561Z,1012.16
2019-05-16T10:05:26.413Z,1012.19
2019-05-16T10:06:23.825Z,1012.22
2019-05-16T10:08:26.709Z,1012.13
2019-05-16T10:09:40.265Z,1012.14
2019-05-16T10:10:26.292Z,1012.13
2019-05-16T10:11:23.750Z,1012.18
2019-05-16T10:12:23.755Z,1012.14
2019-05-16T10:13:23.690Z,1012.15
2019-05-16T10:14:26.875Z,1012.18
2019-05-16T10:15:23.716Z,1012.16
2019-05-16T10:16:23.710Z,1012.16
2019-05-16T10:17:23.675Z,1012.11
2019-05-16T10:18:23.626Z,1012.14
2019-05-16T10:19:23.670Z,1012.15
2019-05-16T10:20:23.630Z,1012.12
2019-05-16T10:21:23.638Z,1012.15
2019-05-16T10:22:23.599Z,1012.12
2019-05-16T10:23:23.601Z,1012.11
2019-05-16T10:24:23.654Z,1012.10
2019-05-16T10:25:23.580Z,1012.05
2019-05-16T10:26:23.549Z,1012.08
2019-05-16T10:27:23.569Z,1012.04
2019-05-16T10:28:23.602Z,1011.97
2019-05-16T10:29:23.601Z,1012.03
2019-05-16T10:30:23.546Z,1012.00
2019-05-16T10:31:36.713Z,1012.00
2019-05-16T10:32:24.546Z,1012.02
2019-05-16T10:33:23.487Z,1012.02
2019-05-16T10:34:23.615Z,1012.00
2019-05-16T10:35:23.447Z,1011.97
2019-05-16T10:36:23.492Z,1011.96
2019-05-16T10:37:23.481Z,1011.88
2019-05-16T10:38:23.467Z,1011.86
2019-05-16T10:39:23.516Z,1011.91
2019-05-16T10:40:23.459Z,1011.96
2019-05-16T10:41:23.471Z,1011.90
2019-05-16T10:42:28.600Z,1011.94
2019-05-16T10:43:26.408Z,1011.96
2019-05-16T10:44:23.412Z,1011.95
2019-05-16T10:45:23.404Z,1011.98
2019-05-16T10:46:23.329Z,1012.02
2019-05-16T10:47:23.325Z,1011.99
2019-05-16T10:48:23.343Z,1012.03
2019-05-16T10:49:34.323Z,1012.02
2019-05-16T10:50:24.404Z,1012.00
2019-05-16T10:51:23.962Z,1012.00
2019-05-16T10:52:23.307Z,1011.97
2019-05-16T10:53:43.026Z,1011.97
2019-05-16T10:54:24.334Z,1011.97
2019-05-16T10:55:23.391Z,1012.01
2019-05-16T10:56:23.258Z,1011.93
2019-05-16T10:57:23.334Z,1011.94
2019-05-16T10:58:36.485Z,1011.94
2019-05-16T10:59:54.390Z,1011.96
2019-05-16T11:00:48.925Z,1011.90
2019-05-16T11:01:28.705Z,1011.87
2019-05-16T11:02:24.214Z,1011.79
2019-05-16T11:03:23.212Z,1011.80
2019-05-16T11:04:49.585Z,1011.71
2019-05-16T11:05:30.486Z,1011.75
2019-05-16T11:06:26.547Z,1011.76
2019-05-16T11:07:24.121Z,1011.81
2019-05-16T11:08:24.525Z,1011.78
2019-05-16T11:09:23.139Z,1011.80
2019-05-16T11:10:23.182Z,1011.83
2019-05-16T11:11:23.065Z,1011.80
2019-05-16T11:12:23.122Z,1011.76
2019-05-16T11:13:23.084Z,1011.80
2019-05-16T11:14:23.072Z,1011.74
2019-05-16T11:15:23.113Z,1011.75
2019-05-16T11:16:23.006Z,1011.78
2019-05-16T11:17:23.075Z,1011.81
2019-05-16T11:18:22.999Z,1011.79
2019-05-16T11:19:24.648Z,1011.86
2019-05-16T11:20:23.011Z,1011.85
2019-05-16T11:21:22.976Z,1011.86
2019-05-16T11:22:22.957Z,1011.87
2019-05-16T11:23:24.297Z,1011.87
2019-05-16T11:24:22.967Z,1011.92
2019-05-16T11:25:28.895Z,1011.93
2019-05-16T11:26:23.930Z,1011.84
2019-05-16T11:27:22.934Z,1011.81
2019-05-16T11:28:22.896Z,1011.81
2019-05-16T11:29:22.878Z,1011.86
2019-05-16T11:30:23.006Z,1011.89
2019-05-16T11:31:22.858Z,1011.90
2019-05-16T11:32:22.894Z,1011.87
2019-05-16T11:33:22.861Z,1011.90
2019-05-16T11:34:22.820Z,1011.87
2019-05-16T11:35:22.832Z,1011.84
2019-05-16T11:36:22.810Z,1011.83
2019-05-16T11:37:22.808Z,1011.89
2019-05-16T11:38:22.812Z,1011.87
2019-05-16T11:39:22.764Z,1011.83
2019-05-16T11:40:22.790Z,1011.87
2019-05-16T11:41:22.791Z,1011.84
2019-05-16T11:42:22.788Z,1011.85
2019-05-16T11:43:22.728Z,1011.87
2019-05-16T11:44:22.726Z,1011.84
2019-05-16T11:45:22.698Z,1011.83
2019-05-16T11:46:31.094Z,1011.83
2019-05-16T11:47:22.726Z,1011.88
2019-05-16T11:48:25.258Z,1011.87
2019-05-16T11:49:23.645Z,1011.87
2019-05-16T11:50:22.695Z,1011.87
2019-05-16T11:51:22.661Z,1011.89
2019-05-16T11:52:40.677Z,1011.80
2019-05-16T11:53:22.620Z,1011.82
2019-05-16T11:54:22.623Z,1011.82
2019-05-16T11:55:22.594Z,1011.83
2019-05-16T11:56:22.596Z,1011.81
2019-05-16T11:57:22.564Z,1011.77
2019-05-16T11:58:22.558Z,1011.77
2019-05-16T11:59:22.552Z,1011.73
2019-05-16T12:00:22.565Z,1011.76
2019-05-16T12:01:22.516Z,1011.70
2019-05-16T12:02:22.530Z,1011.66
2019-05-16T12:03:22.535Z,1011.67
2019-05-16T12:05:23.582Z,1011.66
2019-05-16T12:06:22.615Z,1011.67
2019-05-16T12:07:22.488Z,1011.64
2019-05-16T12:09:23.580Z,1011.68
2019-05-16T12:10:22.437Z,1011.69
2019-05-16T12:11:22.464Z,1011.71
2019-05-16T12:12:22.438Z,1011.72
2019-05-16T12:13:31.793Z,1011.73
2019-05-16T12:14:23.386Z,1011.69
2019-05-16T12:15:22.369Z,1011.76
2019-05-16T12:16:22.431Z,1011.70
2019-05-16T12:17:22.407Z,1011.79
2019-05-16T12:18:22.349Z,1011.74
2019-05-16T12:19:22.357Z,1011.77
2019-05-16T12:20:22.327Z,1011.83
2019-05-16T12:21:22.358Z,1011.77
2019-05-16T12:22:22.331Z,1011.84
2019-05-16T12:23:24.373Z,1011.82
2019-05-16T12:24:36.124Z,1011.74
2019-05-16T12:25:23.281Z,1011.70
2019-05-16T12:26:24.225Z,1011.75
2019-05-16T12:27:31.942Z,1011.69
2019-05-16T12:28:23.277Z,1011.65
2019-05-16T12:29:22.247Z,1011.66
2019-05-16T12:30:22.231Z,1011.65
2019-05-16T12:31:22.271Z,1011.70